Terminal Aerodrome Forecast
Issued by NWS Wilmington, OH

Current Version | Previous Version | Graphics & Text | Print | Product List | Glossary On
Versions: 1 2 3 4 5 6 7 8 9 10 11 12 13 14 15 16 17
000
FTUS41 KILN 072200 AAB
TAFCMH
TAF AMD
KCMH 072210Z 0722/0818 22012KT 5SM -TSRA BR OVC035CB
      TEMPO 0722/0723 28025G40KT 1 1/2SM +TSRA BR OVC020CB
     FM072300 22012KT P6SM VCSH BKN035
     FM080900 20010KT P6SM VCSH BKN025
     FM081500 22012G20KT P6SM -SHRA VCTS BKN025CB=

USA.gov is the U.S. government's official web portal to all federal, state and local government web resources and services.